createdAt,value
2018-07-25T00:00:16.700Z,24.80
2018-07-25T00:05:19.730Z,24.80
2018-07-25T00:10:27.218Z,24.70
2018-07-25T00:15:30.251Z,24.60
2018-07-25T00:20:33.313Z,24.60
2018-07-25T00:25:36.371Z,24.50
2018-07-25T00:30:39.427Z,24.50
2018-07-25T00:35:42.579Z,24.40
2018-07-25T00:40:45.670Z,24.30
2018-07-25T00:45:48.749Z,24.10
2018-07-25T00:50:51.784Z,24.10
2018-07-25T00:55:54.787Z,24.10
2018-07-25T01:00:57.796Z,24.00
2018-07-25T01:06:00.839Z,24.00
2018-07-25T01:11:03.881Z,23.90
2018-07-25T01:16:06.972Z,23.90
2018-07-25T01:21:10.047Z,23.80
2018-07-25T01:26:13.075Z,23.70
2018-07-25T01:31:16.111Z,23.70
2018-07-25T01:36:19.127Z,23.70
2018-07-25T01:41:22.196Z,23.60
2018-07-25T01:46:25.210Z,23.50
2018-07-25T01:51:28.222Z,23.50
2018-07-25T01:56:31.323Z,23.50
2018-07-25T02:01:34.343Z,23.50
2018-07-25T02:06:37.330Z,23.50
2018-07-25T02:11:40.343Z,23.40
2018-07-25T02:16:43.740Z,23.30
2018-07-25T02:21:46.744Z,23.30
2018-07-25T02:26:49.897Z,23.20
2018-07-25T02:31:53.014Z,23.20
2018-07-25T02:36:56.067Z,23.20
2018-07-25T02:41:59.163Z,23.20
2018-07-25T02:47:02.209Z,23.10
2018-07-25T02:52:05.267Z,23.10
2018-07-25T02:57:08.382Z,23.10
2018-07-25T03:02:11.404Z,23.10
2018-07-25T03:07:14.491Z,23.00
2018-07-25T03:12:17.494Z,22.90
2018-07-25T03:17:20.544Z,22.90
2018-07-25T03:22:23.570Z,22.90
2018-07-25T03:27:26.616Z,22.90
2018-07-25T03:32:29.628Z,22.90
2018-07-25T03:37:32.717Z,23.00
2018-07-25T03:42:35.743Z,23.00
2018-07-25T03:47:38.838Z,23.00
2018-07-25T03:52:41.838Z,23.00
2018-07-25T03:57:44.979Z,23.10
2018-07-25T04:02:48.056Z,23.10
2018-07-25T04:07:51.088Z,23.20
2018-07-25T04:12:54.516Z,23.30
2018-07-25T04:17:57.564Z,23.30
2018-07-25T04:23:00.574Z,23.50
2018-07-25T04:28:03.580Z,23.60
2018-07-25T04:33:06.641Z,23.80
2018-07-25T04:38:09.728Z,23.80
2018-07-25T04:43:12.774Z,23.90
2018-07-25T04:48:15.796Z,24.00
2018-07-25T04:53:18.846Z,24.10
2018-07-25T04:58:21.903Z,24.10
2018-07-25T05:03:25.071Z,24.10
2018-07-25T05:08:28.195Z,24.00
2018-07-25T05:13:31.224Z,24.10
2018-07-25T05:18:34.276Z,24.20
2018-07-25T05:23:37.308Z,24.40
2018-07-25T05:28:40.340Z,24.60
2018-07-25T05:33:43.518Z,24.80
2018-07-25T05:38:46.550Z,24.90
2018-07-25T05:43:49.624Z,25.00
2018-07-25T05:48:52.651Z,25.10
2018-07-25T05:53:55.689Z,25.20
2018-07-25T05:58:59.117Z,25.40
2018-07-25T06:04:02.129Z,25.50
2018-07-25T06:09:07.516Z,25.70
2018-07-25T06:19:13.437Z,25.90
2018-07-25T06:24:16.495Z,25.90
2018-07-25T06:29:19.694Z,25.90
2018-07-25T06:34:22.837Z,26.20
2018-07-25T06:39:25.884Z,26.30
2018-07-25T06:44:28.946Z,26.50
2018-07-25T06:49:31.953Z,26.70
2018-07-25T06:54:35.019Z,27.00
2018-07-25T06:59:38.335Z,27.00
2018-07-25T07:04:41.443Z,27.10
2018-07-25T07:09:44.593Z,27.10
2018-07-25T07:14:47.750Z,27.10
2018-07-25T07:19:51.004Z,27.40
2018-07-25T07:24:54.062Z,27.50
2018-07-25T07:29:57.115Z,27.70
2018-07-25T07:35:00.181Z,27.70
2018-07-25T07:40:03.314Z,27.60
2018-07-25T07:45:07.431Z,27.60
2018-07-25T07:50:10.437Z,27.80
2018-07-25T07:55:13.627Z,28.00
2018-07-25T08:00:16.728Z,27.90
2018-07-25T08:05:19.763Z,28.20
2018-07-25T08:10:22.768Z,28.30
2018-07-25T08:15:25.760Z,28.30
2018-07-25T08:20:28.839Z,28.50
2018-07-25T08:25:32.052Z,28.60
2018-07-25T08:30:35.118Z,28.70
2018-07-25T08:35:38.287Z,28.90
2018-07-25T08:40:41.418Z,28.90
2018-07-25T08:45:44.500Z,28.90
2018-07-25T08:50:47.539Z,29.10
2018-07-25T08:55:51.679Z,29.30
2018-07-25T09:00:54.703Z,29.80
2018-07-25T09:05:57.716Z,30.40
2018-07-25T09:11:00.757Z,30.70
2018-07-25T09:16:04.056Z,31.00
2018-07-25T09:21:07.517Z,31.20
2018-07-25T09:26:10.571Z,30.90
2018-07-25T09:31:13.585Z,30.40
2018-07-25T09:36:16.647Z,29.60
2018-07-25T09:41:19.657Z,29.60
2018-07-25T09:46:22.786Z,29.80
2018-07-25T09:51:25.867Z,30.50
2018-07-25T10:01:31.844Z,33.40
2018-07-25T10:06:34.914Z,33.30
2018-07-25T10:11:37.962Z,33.50
2018-07-25T10:16:41.003Z,34.10
2018-07-25T10:21:44.055Z,34.20
2018-07-25T10:26:47.112Z,34.30
2018-07-25T10:31:50.192Z,34.10
2018-07-25T10:36:53.244Z,33.30
2018-07-25T10:41:56.303Z,32.20
2018-07-25T10:46:59.384Z,32.10
2018-07-25T10:52:02.432Z,31.70
2018-07-25T10:57:05.503Z,31.90
2018-07-25T11:02:08.629Z,32.40
2018-07-25T11:07:11.620Z,33.10
2018-07-25T11:12:14.685Z,32.70
2018-07-25T11:17:17.701Z,32.90
2018-07-25T11:22:20.735Z,32.40
2018-07-25T11:27:23.783Z,32.70
2018-07-25T11:32:26.867Z,33.80
2018-07-25T11:37:29.893Z,33.70
2018-07-25T11:42:32.952Z,33.80
2018-07-25T11:47:36.030Z,34.60
2018-07-25T11:52:39.064Z,34.30
2018-07-25T11:57:42.146Z,34.10
2018-07-25T12:02:45.206Z,34.70
2018-07-25T12:07:48.284Z,34.90
2018-07-25T12:12:51.480Z,35.40
2018-07-25T12:22:57.402Z,34.60
2018-07-25T12:28:00.536Z,34.20
2018-07-25T12:33:03.584Z,34.20
2018-07-25T12:38:06.618Z,34.90
2018-07-25T12:43:09.638Z,35.70
2018-07-25T12:48:12.649Z,35.50
2018-07-25T12:53:15.690Z,35.50
2018-07-25T12:58:19.106Z,36.00
2018-07-25T13:03:22.148Z,36.50
2018-07-25T13:08:25.410Z,36.50
2018-07-25T13:13:28.580Z,36.60
2018-07-25T13:18:31.647Z,36.00
2018-07-25T13:23:34.679Z,35.70
2018-07-25T13:28:37.732Z,35.80
2018-07-25T13:33:40.857Z,35.90
2018-07-25T13:38:44.018Z,36.40
2018-07-25T13:43:47.193Z,35.80
2018-07-25T13:48:50.215Z,34.30
2018-07-25T13:53:53.258Z,33.80
2018-07-25T13:58:56.305Z,34.70
2018-07-25T14:03:59.413Z,35.60
2018-07-25T14:09:02.429Z,36.10
2018-07-25T14:14:05.548Z,35.10
2018-07-25T14:19:08.852Z,35.20
2018-07-25T14:24:11.993Z,36.20
2018-07-25T14:29:15.005Z,37.00
2018-07-25T14:34:18.220Z,37.30
2018-07-25T14:39:21.163Z,37.60
2018-07-25T14:44:24.309Z,37.50
2018-07-25T14:49:27.277Z,37.60
2018-07-25T14:54:30.320Z,37.80
2018-07-25T14:59:33.393Z,37.90
2018-07-25T15:04:36.492Z,36.70
2018-07-25T15:09:40.055Z,36.80
2018-07-25T15:14:43.195Z,37.00
2018-07-25T15:19:46.275Z,36.90
2018-07-25T15:24:49.311Z,36.40
2018-07-25T15:29:52.364Z,36.70
2018-07-25T15:34:55.557Z,36.20
2018-07-25T15:39:58.596Z,36.10
2018-07-25T15:45:01.744Z,36.70
2018-07-25T15:50:05.383Z,36.30
2018-07-25T15:55:08.439Z,35.60
2018-07-25T16:00:11.457Z,36.10
2018-07-25T16:05:14.519Z,36.40
2018-07-25T16:10:17.661Z,36.30
2018-07-25T16:15:20.727Z,36.10
2018-07-25T16:20:23.775Z,35.60
2018-07-25T16:25:26.821Z,35.10
2018-07-25T16:30:29.877Z,35.40
2018-07-25T16:35:32.969Z,35.80
2018-07-25T16:40:35.993Z,36.20
2018-07-25T16:45:39.094Z,36.00
2018-07-25T16:50:42.253Z,35.40
2018-07-25T16:55:45.582Z,35.40
2018-07-25T17:00:48.611Z,35.40
2018-07-25T17:05:51.692Z,35.60
2018-07-25T17:10:54.736Z,35.70
2018-07-25T17:15:57.825Z,35.40
2018-07-25T17:21:00.882Z,35.20
2018-07-25T17:26:03.937Z,35.20
2018-07-25T17:31:06.976Z,35.20
2018-07-25T17:36:10.022Z,35.00
2018-07-25T17:41:13.110Z,34.70
2018-07-25T17:46:16.218Z,34.20
2018-07-25T17:51:19.244Z,33.90
2018-07-25T17:56:22.672Z,33.70
2018-07-25T18:01:25.742Z,33.50
2018-07-25T18:06:28.763Z,33.30
2018-07-25T18:11:31.829Z,33.10
2018-07-25T18:16:34.979Z,33.00
2018-07-25T18:21:38.138Z,32.80
2018-07-25T18:26:41.751Z,32.60
2018-07-25T18:31:45.059Z,32.30
2018-07-25T18:36:48.242Z,32.10
2018-07-25T18:41:51.332Z,31.80
2018-07-25T18:46:54.389Z,31.80
2018-07-25T18:51:57.540Z,31.60
2018-07-25T18:57:00.606Z,31.40
2018-07-25T19:02:03.654Z,31.30
2018-07-25T19:07:06.762Z,31.10
2018-07-25T19:12:09.784Z,31.00
2018-07-25T19:17:12.837Z,30.80
2018-07-25T19:22:15.882Z,30.70
2018-07-25T19:27:18.975Z,30.60
2018-07-25T19:32:22.076Z,30.50
2018-07-25T19:37:25.104Z,30.50
2018-07-25T19:42:28.128Z,30.40
2018-07-25T19:47:31.165Z,30.40
2018-07-25T19:52:34.244Z,30.20
2018-07-25T19:57:37.274Z,30.20
2018-07-25T20:02:40.809Z,30.20
2018-07-25T20:07:44.028Z,30.10
2018-07-25T20:12:47.647Z,30.10
2018-07-25T20:17:51.166Z,29.90
2018-07-25T20:22:54.274Z,29.90
2018-07-25T20:27:57.563Z,29.80
2018-07-25T20:33:00.599Z,29.70
2018-07-25T20:38:03.643Z,29.70
2018-07-25T20:43:06.950Z,29.60
2018-07-25T20:48:10.095Z,29.60
2018-07-25T20:53:13.184Z,29.60
2018-07-25T20:58:17.463Z,29.50
2018-07-25T21:03:20.551Z,29.30
2018-07-25T21:08:23.560Z,29.20
2018-07-25T21:13:26.592Z,29.00
2018-07-25T21:18:29.674Z,29.00
2018-07-25T21:23:32.748Z,28.90
2018-07-25T21:28:35.805Z,28.80
2018-07-25T21:33:38.875Z,28.70
2018-07-25T21:38:42.036Z,28.70
2018-07-25T21:43:45.136Z,28.60
2018-07-25T21:48:48.237Z,28.40
2018-07-25T21:53:51.297Z,28.40
2018-07-25T21:58:54.503Z,28.40
2018-07-25T22:03:57.564Z,28.30
2018-07-25T22:09:00.639Z,28.20
2018-07-25T22:14:06.863Z,28.00
2018-07-25T22:19:09.930Z,27.80
2018-07-25T22:24:13.061Z,27.70
2018-07-25T22:29:16.088Z,27.60
2018-07-25T22:34:19.172Z,27.60
2018-07-25T22:39:22.196Z,27.50
2018-07-25T22:44:25.310Z,27.40
2018-07-25T22:49:28.326Z,27.40
2018-07-25T22:54:31.411Z,27.40
2018-07-25T22:59:34.498Z,27.40
2018-07-25T23:04:37.529Z,27.40
2018-07-25T23:09:40.598Z,27.30
2018-07-25T23:14:43.874Z,27.30
2018-07-25T23:19:46.796Z,27.30
2018-07-25T23:24:49.928Z,27.10
2018-07-25T23:29:53.145Z,27.00
2018-07-25T23:34:56.207Z,26.90
2018-07-25T23:39:59.242Z,26.80
2018-07-25T23:45:02.366Z,26.70
2018-07-25T23:50:05.648Z,26.50
2018-07-25T23:55:09.280Z,26.50
